createdAt,value
2019-02-15T00:00:30.065Z,3.73
2019-02-15T00:02:58.308Z,3.93
2019-02-15T00:05:26.555Z,3.40
2019-02-15T00:07:54.769Z,3.37
2019-02-15T00:10:23.280Z,3.10
2019-02-15T00:12:51.538Z,4.20
2019-02-15T00:15:20.026Z,3.70
2019-02-15T00:17:52.821Z,3.67
2019-02-15T00:20:28.415Z,3.33
2019-02-15T00:22:56.655Z,3.60
2019-02-15T00:25:24.901Z,3.20
2019-02-15T00:27:53.155Z,3.73
2019-02-15T00:30:21.360Z,4.07
2019-02-15T00:32:49.600Z,3.77
2019-02-15T00:35:17.831Z,4.00
2019-02-15T00:37:46.314Z,3.33
2019-02-15T00:40:14.561Z,3.47
2019-02-15T00:42:43.110Z,3.30
2019-02-15T00:45:13.004Z,3.47
2019-02-15T00:47:42.863Z,3.60
2019-02-15T00:50:15.904Z,3.77
2019-02-15T00:52:51.921Z,3.50
2019-02-15T00:55:21.805Z,3.40
2019-02-15T00:58:07.971Z,3.73
2019-02-15T01:00:40.804Z,3.43
2019-02-15T01:03:28.481Z,3.80
2019-02-15T01:06:04.007Z,3.77
2019-02-15T01:08:36.529Z,4.27
2019-02-15T01:11:18.455Z,3.47
2019-02-15T01:13:46.691Z,3.57
2019-02-15T01:16:14.927Z,3.50
2019-02-15T01:18:43.284Z,3.43
2019-02-15T01:21:11.501Z,3.63
2019-02-15T01:23:39.736Z,3.43
2019-02-15T01:26:21.471Z,3.77
2019-02-15T01:29:00.041Z,3.50
2019-02-15T01:31:46.163Z,3.67
2019-02-15T01:34:16.039Z,3.30
2019-02-15T01:36:48.607Z,3.40
2019-02-15T01:39:34.840Z,3.50
2019-02-15T01:42:04.695Z,4.30
2019-02-15T01:44:43.527Z,3.53
2019-02-15T01:47:13.364Z,3.83
2019-02-15T01:49:41.596Z,4.53
2019-02-15T01:52:09.821Z,3.90
2019-02-15T01:54:38.289Z,3.40
2019-02-15T01:57:06.534Z,3.63
2019-02-15T01:59:34.773Z,3.43
2019-02-15T02:02:03.028Z,3.80
2019-02-15T02:04:31.257Z,3.33
2019-02-15T02:06:59.499Z,3.67
2019-02-15T02:09:27.751Z,3.50
2019-02-15T02:11:55.993Z,4.20
2019-02-15T02:14:24.231Z,3.50
2019-02-15T02:16:52.451Z,4.03
2019-02-15T02:19:20.676Z,3.70
2019-02-15T02:21:48.932Z,3.80
2019-02-15T02:24:17.151Z,3.30
2019-02-15T02:26:45.382Z,3.40
2019-02-15T02:29:13.603Z,4.07
2019-02-15T02:31:41.844Z,3.57
2019-02-15T02:34:10.068Z,3.23
2019-02-15T02:36:52.736Z,4.00
2019-02-15T02:39:21.022Z,3.73
2019-02-15T02:41:49.262Z,3.50
2019-02-15T02:44:17.501Z,3.30
2019-02-15T02:46:46.004Z,3.00
2019-02-15T02:49:14.260Z,3.30
2019-02-15T02:51:42.527Z,3.37
2019-02-15T02:54:10.782Z,3.57
2019-02-15T02:56:39.037Z,3.17
2019-02-15T02:59:07.263Z,3.33
2019-02-15T03:01:35.495Z,3.70
2019-02-15T03:04:03.728Z,3.30
2019-02-15T03:06:31.958Z,3.40
2019-02-15T03:09:00.197Z,3.33
2019-02-15T03:11:28.431Z,3.20
2019-02-15T03:13:56.682Z,3.17
2019-02-15T03:16:25.163Z,3.27
2019-02-15T03:18:53.399Z,3.27
2019-02-15T03:21:21.657Z,3.50
2019-02-15T03:23:49.873Z,3.27
2019-02-15T03:26:18.124Z,3.30
2019-02-15T03:28:46.349Z,3.60
2019-02-15T03:31:14.601Z,3.60
2019-02-15T03:33:42.838Z,3.57
2019-02-15T03:36:12.724Z,3.33
2019-02-15T03:38:42.577Z,2.93
2019-02-15T03:41:12.472Z,3.17
2019-02-15T03:43:40.709Z,3.60
2019-02-15T03:46:09.152Z,2.83
2019-02-15T03:48:37.620Z,3.53
2019-02-15T03:51:05.868Z,3.33
2019-02-15T03:53:34.083Z,3.40
2019-02-15T03:56:02.417Z,3.77
2019-02-15T03:58:30.866Z,3.47
2019-02-15T04:00:59.087Z,3.47
2019-02-15T04:03:27.345Z,3.60
2019-02-15T04:05:55.572Z,3.50
2019-02-15T04:08:23.813Z,3.80
2019-02-15T04:10:52.058Z,3.23
2019-02-15T04:13:20.276Z,3.47
2019-02-15T04:15:48.743Z,3.73
2019-02-15T04:18:16.966Z,3.43
2019-02-15T04:20:45.219Z,3.43
2019-02-15T04:23:13.516Z,3.67
2019-02-15T04:25:41.755Z,3.40
2019-02-15T04:28:10.005Z,3.30
2019-02-15T04:30:38.245Z,3.63
2019-02-15T04:33:06.484Z,3.17
2019-02-15T04:35:34.755Z,2.97
2019-02-15T04:38:03.009Z,3.57
2019-02-15T04:40:31.256Z,3.23
2019-02-15T04:42:59.484Z,3.53
2019-02-15T04:45:27.737Z,3.77
2019-02-15T04:47:55.979Z,3.70
2019-02-15T04:50:24.199Z,3.93
2019-02-15T04:52:52.680Z,3.90
2019-02-15T04:55:20.905Z,3.40
2019-02-15T04:57:49.167Z,2.97
2019-02-15T05:00:17.396Z,3.40
2019-02-15T05:02:45.647Z,3.17
2019-02-15T05:05:13.893Z,3.53
2019-02-15T05:07:42.122Z,3.83
2019-02-15T05:10:10.376Z,3.10
2019-02-15T05:12:38.594Z,3.00
2019-02-15T05:15:08.154Z,3.20
2019-02-15T05:17:36.404Z,3.80
2019-02-15T05:20:06.284Z,3.10
2019-02-15T05:22:34.516Z,3.70
2019-02-15T05:25:02.789Z,3.20
2019-02-15T05:27:31.095Z,3.23
2019-02-15T05:29:59.432Z,2.93
2019-02-15T05:32:27.744Z,3.20
2019-02-15T05:34:56.000Z,2.77
2019-02-15T05:37:24.211Z,3.20
2019-02-15T05:39:52.459Z,3.07
2019-02-15T05:42:20.684Z,4.80
2019-02-15T05:44:48.925Z,3.70
2019-02-15T05:47:17.176Z,3.40
2019-02-15T05:49:45.420Z,3.20
2019-02-15T05:52:13.666Z,3.57
2019-02-15T05:54:41.888Z,3.90
2019-02-15T05:57:10.132Z,3.37
2019-02-15T05:59:38.597Z,3.60
2019-02-15T06:02:06.912Z,3.10
2019-02-15T06:04:35.168Z,3.20
2019-02-15T06:07:03.610Z,3.27
2019-02-15T06:09:31.855Z,3.10
2019-02-15T06:12:00.078Z,3.40
2019-02-15T06:14:28.317Z,3.00
2019-02-15T06:16:56.563Z,3.73
2019-02-15T06:19:25.083Z,2.83
2019-02-15T06:21:53.361Z,3.00
2019-02-15T06:24:21.584Z,3.67
2019-02-15T06:26:49.817Z,3.10
2019-02-15T06:29:18.041Z,3.53
2019-02-15T06:31:46.275Z,3.10
2019-02-15T06:34:14.731Z,3.33
2019-02-15T06:36:42.963Z,3.40
2019-02-15T06:39:11.224Z,3.67
2019-02-15T06:41:39.475Z,3.20
2019-02-15T06:44:07.733Z,3.17
2019-02-15T06:46:35.987Z,2.97
2019-02-15T06:49:04.367Z,3.10
2019-02-15T06:51:32.696Z,3.13
2019-02-15T06:54:00.941Z,3.90
2019-02-15T06:56:29.185Z,3.30
2019-02-15T06:59:15.481Z,2.93
2019-02-15T07:01:50.980Z,3.27
2019-02-15T07:04:20.890Z,2.83
2019-02-15T07:06:49.138Z,3.93
2019-02-15T07:09:17.349Z,3.30
2019-02-15T07:11:45.672Z,3.10
2019-02-15T07:14:14.157Z,2.83
2019-02-15T07:16:42.456Z,3.17
2019-02-15T07:19:10.719Z,3.40
2019-02-15T07:21:39.037Z,3.97
2019-02-15T07:24:07.308Z,3.60
2019-02-15T07:26:35.564Z,2.80
2019-02-15T07:29:03.815Z,2.87
2019-02-15T07:31:32.067Z,2.83
2019-02-15T07:34:00.307Z,3.60
2019-02-15T07:36:28.555Z,3.20
2019-02-15T07:38:56.816Z,3.63
2019-02-15T07:41:25.059Z,3.80
2019-02-15T07:43:53.324Z,3.30
2019-02-15T07:46:21.555Z,3.10
2019-02-15T07:48:49.791Z,3.47
2019-02-15T07:51:18.048Z,3.33
2019-02-15T07:53:46.291Z,2.90
2019-02-15T07:56:14.590Z,3.67
2019-02-15T07:58:42.889Z,3.10
2019-02-15T08:01:11.160Z,2.90
2019-02-15T08:03:39.684Z,3.10
2019-02-15T08:06:07.936Z,3.60
2019-02-15T08:08:36.244Z,4.43
2019-02-15T08:11:04.484Z,3.20
2019-02-15T08:13:32.711Z,4.20
2019-02-15T08:16:02.803Z,3.17
2019-02-15T08:18:30.917Z,3.57
2019-02-15T08:20:59.123Z,3.23
2019-02-15T08:23:27.393Z,3.17
2019-02-15T08:25:55.613Z,3.20
2019-02-15T08:28:23.940Z,3.00
2019-02-15T08:30:52.182Z,3.57
2019-02-15T08:33:20.399Z,4.03
2019-02-15T08:35:48.663Z,3.53
2019-02-15T08:38:16.899Z,3.37
2019-02-15T08:40:45.395Z,3.40
2019-02-15T08:43:13.679Z,3.40
2019-02-15T08:45:41.930Z,3.03
2019-02-15T08:48:10.241Z,3.23
2019-02-15T08:50:38.458Z,3.07
2019-02-15T08:53:06.744Z,3.20
2019-02-15T08:55:35.921Z,4.57
2019-02-15T08:58:04.376Z,3.00
2019-02-15T09:00:32.605Z,3.20
2019-02-15T09:03:00.837Z,3.47
2019-02-15T09:05:29.099Z,3.30
2019-02-15T09:07:57.320Z,3.37
2019-02-15T09:10:25.544Z,3.57
2019-02-15T09:12:53.778Z,3.70
2019-02-15T09:15:23.348Z,3.43
2019-02-15T09:17:51.599Z,3.20
2019-02-15T09:20:19.821Z,2.57
2019-02-15T09:22:48.126Z,4.53
2019-02-15T09:25:16.396Z,18.87
2019-02-15T09:27:46.268Z,8.23
2019-02-15T09:30:14.796Z,6.93
2019-02-15T09:32:43.044Z,5.67
2019-02-15T09:35:11.915Z,7.93
2019-02-15T09:37:40.161Z,4.33
2019-02-15T09:40:09.995Z,3.63
2019-02-15T09:42:38.229Z,3.57
2019-02-15T09:45:09.871Z,3.13
2019-02-15T09:47:38.119Z,3.07
2019-02-15T09:50:09.841Z,4.57
2019-02-15T09:52:38.648Z,5.00
2019-02-15T09:55:06.898Z,4.77
2019-02-15T09:57:35.108Z,4.40
2019-02-15T10:00:03.423Z,4.57
2019-02-15T10:02:31.656Z,3.87
2019-02-15T10:04:59.888Z,3.47
2019-02-15T10:07:28.360Z,3.50
2019-02-15T10:09:56.605Z,6.87
2019-02-15T10:12:24.828Z,3.93
2019-02-15T10:14:53.056Z,4.90
2019-02-15T10:17:21.316Z,15.53
2019-02-15T10:19:49.560Z,8.50
2019-02-15T10:22:17.788Z,10.70
2019-02-15T10:24:46.081Z,8.20
2019-02-15T10:27:14.311Z,6.03
2019-02-15T10:29:42.566Z,9.67
2019-02-15T10:32:10.867Z,5.97
2019-02-15T10:34:39.422Z,5.33
2019-02-15T10:37:07.644Z,6.27
2019-02-15T10:39:35.899Z,5.13
2019-02-15T10:42:04.123Z,6.20
2019-02-15T10:44:32.344Z,5.10
2019-02-15T10:47:00.596Z,3.60
2019-02-15T10:49:28.820Z,4.67
2019-02-15T10:51:57.076Z,3.10
2019-02-15T10:54:25.329Z,3.80
2019-02-15T10:56:53.593Z,4.63
2019-02-15T10:59:21.851Z,12.30
2019-02-15T11:01:50.068Z,9.57
2019-02-15T11:04:18.552Z,10.90
2019-02-15T11:06:46.783Z,8.17
2019-02-15T11:09:15.004Z,11.90
2019-02-15T11:11:43.255Z,8.50
2019-02-15T11:14:11.476Z,8.17
2019-02-15T11:16:47.036Z,9.50
2019-02-15T11:19:09.692Z,5.63
2019-02-15T11:21:38.173Z,8.40
2019-02-15T11:24:06.430Z,8.97
2019-02-15T11:26:34.648Z,9.23
2019-02-15T11:29:02.875Z,8.20
2019-02-15T11:31:31.099Z,8.13
2019-02-15T11:33:59.352Z,8.33
2019-02-15T11:36:27.590Z,6.47
2019-02-15T11:38:55.807Z,7.23
2019-02-15T11:41:24.075Z,8.67
2019-02-15T11:43:52.312Z,7.00
2019-02-15T11:46:20.548Z,14.23
2019-02-15T11:48:48.776Z,9.27
2019-02-15T11:51:17.016Z,8.53
2019-02-15T11:53:45.260Z,6.97
2019-02-15T11:56:13.506Z,6.30
2019-02-15T11:58:41.736Z,9.43
2019-02-15T12:01:09.991Z,8.47
2019-02-15T12:03:38.232Z,6.93
2019-02-15T12:06:06.489Z,8.27
2019-02-15T12:08:34.732Z,7.03
2019-02-15T12:11:03.025Z,6.47
2019-02-15T12:13:31.366Z,11.17
2019-02-15T12:15:59.607Z,6.53
2019-02-15T12:18:27.863Z,6.83
2019-02-15T12:20:56.087Z,8.53
2019-02-15T12:23:24.360Z,7.03
2019-02-15T12:25:52.667Z,7.30
2019-02-15T12:28:20.912Z,6.90
2019-02-15T12:30:49.200Z,10.27
2019-02-15T12:33:17.716Z,6.90
2019-02-15T12:35:46.226Z,6.63
2019-02-15T12:38:14.470Z,5.77
2019-02-15T12:40:42.932Z,12.57
2019-02-15T12:43:11.172Z,6.77
2019-02-15T12:45:39.425Z,7.33
2019-02-15T12:48:07.679Z,4.67
2019-02-15T12:50:35.934Z,10.07
2019-02-15T12:53:04.317Z,7.70
2019-02-15T12:55:32.606Z,12.90
2019-02-15T12:58:01.052Z,5.67
2019-02-15T13:00:29.326Z,8.23
2019-02-15T13:02:57.712Z,5.00
2019-02-15T13:05:26.010Z,7.20
2019-02-15T13:07:54.288Z,7.23
2019-02-15T13:10:24.203Z,6.83
2019-02-15T13:12:52.444Z,7.00
2019-02-15T13:15:20.650Z,6.50
2019-02-15T13:17:49.443Z,6.57
2019-02-15T13:20:17.715Z,7.03
2019-02-15T13:22:45.955Z,10.85
2019-02-15T13:25:14.422Z,4.70
2019-02-15T13:27:42.893Z,7.30
2019-02-15T13:30:12.977Z,6.55
2019-02-15T13:32:41.700Z,7.93
2019-02-15T13:35:14.992Z,7.62
2019-02-15T13:37:43.224Z,7.05
2019-02-15T13:40:11.773Z,4.95
2019-02-15T13:42:40.104Z,9.10
2019-02-15T13:45:12.319Z,7.47
2019-02-15T13:47:40.809Z,7.67
2019-02-15T13:50:13.109Z,4.67
2019-02-15T13:52:41.396Z,6.83
2019-02-15T13:55:10.280Z,13.38
2019-02-15T13:57:38.539Z,9.95
2019-02-15T14:00:14.240Z,4.85
2019-02-15T14:02:42.467Z,5.40
2019-02-15T14:05:12.638Z,6.33
2019-02-15T14:07:40.904Z,6.25
2019-02-15T14:10:13.273Z,6.55
2019-02-15T14:12:41.486Z,5.47
2019-02-15T14:15:10.663Z,7.33
2019-02-15T14:17:44.743Z,7.40
2019-02-15T14:20:11.620Z,5.40
2019-02-15T14:22:39.854Z,9.43
2019-02-15T14:25:09.672Z,8.30
2019-02-15T14:27:37.947Z,6.27
2019-02-15T14:30:09.482Z,9.03
2019-02-15T14:32:37.727Z,5.67
2019-02-15T14:35:08.092Z,8.97
2019-02-15T14:37:36.352Z,11.03
2019-02-15T14:40:06.316Z,13.67
2019-02-15T14:42:34.559Z,12.47
2019-02-15T14:45:03.044Z,9.80
2019-02-15T14:47:31.264Z,11.37
2019-02-15T14:49:59.528Z,15.27
2019-02-15T14:52:27.757Z,12.33
2019-02-15T14:54:55.996Z,9.70
2019-02-15T14:57:24.251Z,15.87
2019-02-15T14:59:52.712Z,11.07
2019-02-15T15:02:20.957Z,12.87
2019-02-15T15:04:49.208Z,15.73
2019-02-15T15:07:17.437Z,16.80
2019-02-15T15:09:45.700Z,16.10
2019-02-15T15:12:13.981Z,17.73
2019-02-15T15:14:42.196Z,18.33
2019-02-15T15:17:10.449Z,13.47
2019-02-15T15:19:38.704Z,19.63
2019-02-15T15:22:06.925Z,17.93
2019-02-15T15:24:35.412Z,62.00
2019-02-15T15:27:03.642Z,40.80
2019-02-15T15:29:31.885Z,31.60
2019-02-15T15:32:00.343Z,29.00
2019-02-15T15:34:28.596Z,26.67
2019-02-15T15:36:56.829Z,30.13
2019-02-15T15:39:25.126Z,23.03
2019-02-15T15:41:53.406Z,18.50
2019-02-15T15:44:21.655Z,19.53
2019-02-15T15:46:49.902Z,20.17
2019-02-15T15:49:18.159Z,17.07
2019-02-15T15:51:46.382Z,24.80
2019-02-15T15:54:14.631Z,15.83
2019-02-15T15:56:42.872Z,16.60
2019-02-15T15:59:11.160Z,16.93
2019-02-15T16:01:39.636Z,20.63
2019-02-15T16:04:07.888Z,19.33
2019-02-15T16:06:36.368Z,19.27
2019-02-15T16:09:05.175Z,12.13
2019-02-15T16:11:33.404Z,13.87
2019-02-15T16:14:01.901Z,14.97
2019-02-15T16:16:30.149Z,16.70
2019-02-15T16:18:58.364Z,17.87
2019-02-15T16:21:26.808Z,15.70
2019-02-15T16:23:55.036Z,14.17
2019-02-15T16:26:23.303Z,13.47
2019-02-15T16:28:51.639Z,13.27
2019-02-15T16:31:19.896Z,13.73
2019-02-15T16:33:48.137Z,16.57
2019-02-15T16:36:16.592Z,17.50
2019-02-15T16:38:44.853Z,13.17
2019-02-15T16:41:13.079Z,15.97
2019-02-15T16:43:41.340Z,17.83
2019-02-15T16:46:09.579Z,12.87
2019-02-15T16:48:42.114Z,20.70
2019-02-15T16:51:07.765Z,18.33
2019-02-15T16:53:36.017Z,21.43
2019-02-15T16:56:04.266Z,18.60
2019-02-15T16:58:32.491Z,17.60
2019-02-15T17:01:00.831Z,23.23
2019-02-15T17:03:29.081Z,23.33
2019-02-15T17:05:57.384Z,15.60
2019-02-15T17:08:25.628Z,26.13
2019-02-15T17:10:53.873Z,16.67
2019-02-15T17:13:22.356Z,21.40
2019-02-15T17:15:50.595Z,14.07
2019-02-15T17:18:18.852Z,12.00
2019-02-15T17:20:47.081Z,17.23
2019-02-15T17:23:15.356Z,15.90
2019-02-15T17:25:45.709Z,16.63
2019-02-15T17:28:13.799Z,19.83
2019-02-15T17:30:42.045Z,14.67
2019-02-15T17:33:10.297Z,14.70
2019-02-15T17:35:38.516Z,13.77
2019-02-15T17:38:06.787Z,16.63
2019-02-15T17:40:35.050Z,15.90
2019-02-15T17:43:03.361Z,16.47
2019-02-15T17:45:31.832Z,15.53
2019-02-15T17:48:01.000Z,20.17
2019-02-15T17:50:29.389Z,15.47
2019-02-15T17:52:57.631Z,14.80
2019-02-15T17:55:25.870Z,19.93
2019-02-15T17:57:54.112Z,15.10
2019-02-15T18:00:25.971Z,19.30
2019-02-15T18:02:53.990Z,16.90
2019-02-15T18:05:22.257Z,16.47
2019-02-15T18:07:50.486Z,15.47
2019-02-15T18:10:18.721Z,14.93
2019-02-15T18:12:46.972Z,12.63
2019-02-15T18:15:15.236Z,12.57
2019-02-15T18:17:43.448Z,12.73
2019-02-15T18:20:11.698Z,14.67
2019-02-15T18:22:40.183Z,15.07
2019-02-15T18:25:08.788Z,12.10
2019-02-15T18:27:37.034Z,12.07
2019-02-15T18:30:11.055Z,14.40
2019-02-15T18:32:39.296Z,10.97
2019-02-15T18:35:07.538Z,11.50
2019-02-15T18:37:35.746Z,9.33
2019-02-15T18:40:05.536Z,9.67
2019-02-15T18:42:33.758Z,12.50
2019-02-15T18:45:02.013Z,10.60
2019-02-15T18:47:30.255Z,9.83
2019-02-15T18:49:58.471Z,9.83
2019-02-15T18:52:26.725Z,13.90
2019-02-15T18:54:54.940Z,7.97
2019-02-15T18:57:23.191Z,9.73
2019-02-15T18:59:51.407Z,10.57
2019-02-15T19:02:19.657Z,9.10
2019-02-15T19:04:47.884Z,8.37
2019-02-15T19:07:16.207Z,10.13
2019-02-15T19:09:44.441Z,10.40
2019-02-15T19:12:12.688Z,9.23
2019-02-15T19:14:40.904Z,10.77
2019-02-15T19:17:09.165Z,6.77
2019-02-15T19:19:37.401Z,10.77
2019-02-15T19:22:05.727Z,10.43
2019-02-15T19:24:33.947Z,9.57
2019-02-15T19:27:02.429Z,8.33
2019-02-15T19:29:30.676Z,6.67
2019-02-15T19:31:58.927Z,9.30
2019-02-15T19:34:27.165Z,5.80
2019-02-15T19:36:55.388Z,7.30
2019-02-15T19:39:23.629Z,8.30
2019-02-15T19:41:52.099Z,7.77
2019-02-15T19:44:20.363Z,10.17
2019-02-15T19:46:48.588Z,6.90
2019-02-15T19:49:16.816Z,6.03
2019-02-15T19:51:45.124Z,8.63
2019-02-15T19:54:13.457Z,6.57
2019-02-15T19:56:41.692Z,5.77
2019-02-15T19:59:09.932Z,6.73
2019-02-15T20:01:38.147Z,4.97
2019-02-15T20:04:06.398Z,6.30
2019-02-15T20:06:34.612Z,6.83
2019-02-15T20:09:02.869Z,7.13
2019-02-15T20:11:31.131Z,6.83
2019-02-15T20:14:00.076Z,7.07
2019-02-15T20:16:28.505Z,6.27
2019-02-15T20:18:56.724Z,7.73
2019-02-15T20:21:24.969Z,5.23
2019-02-15T20:23:53.221Z,6.33
2019-02-15T20:26:21.535Z,6.27
2019-02-15T20:28:50.904Z,7.13
2019-02-15T20:31:19.185Z,7.17
2019-02-15T20:33:47.403Z,6.27
2019-02-15T20:36:15.675Z,5.97
2019-02-15T20:38:43.926Z,5.50
2019-02-15T20:41:12.149Z,8.73
2019-02-15T20:43:40.404Z,5.73
2019-02-15T20:46:08.635Z,7.27
2019-02-15T20:48:37.118Z,7.93
2019-02-15T20:51:05.408Z,4.33
2019-02-15T20:53:33.649Z,6.77
2019-02-15T20:56:02.092Z,4.90
2019-02-15T20:58:30.339Z,4.40
2019-02-15T21:00:58.579Z,3.97
2019-02-15T21:03:26.803Z,4.60
2019-02-15T21:05:55.057Z,6.07
2019-02-15T21:08:23.297Z,7.03
2019-02-15T21:10:55.097Z,5.87
2019-02-15T21:13:21.520Z,5.73
2019-02-15T21:15:49.735Z,6.47
2019-02-15T21:18:18.066Z,5.57
2019-02-15T21:20:46.539Z,5.27
2019-02-15T21:23:14.749Z,5.03
2019-02-15T21:25:42.992Z,5.07
2019-02-15T21:28:11.216Z,5.37
2019-02-15T21:30:39.686Z,5.67
2019-02-15T21:33:07.906Z,5.57
2019-02-15T21:35:36.151Z,7.17
2019-02-15T21:38:04.402Z,4.50
2019-02-15T21:40:32.653Z,5.33
2019-02-15T21:43:00.876Z,6.63
2019-02-15T21:45:29.323Z,4.77
2019-02-15T21:47:57.799Z,4.47
2019-02-15T21:50:26.043Z,7.93
2019-02-15T21:52:54.285Z,5.97
2019-02-15T21:55:22.585Z,5.80
2019-02-15T21:57:50.857Z,4.93
2019-02-15T22:00:21.502Z,4.37
2019-02-15T22:02:49.729Z,4.17
2019-02-15T22:05:18.020Z,4.50
2019-02-15T22:07:46.271Z,5.50
2019-02-15T22:10:14.488Z,4.63
2019-02-15T22:12:42.733Z,3.33
2019-02-15T22:15:12.624Z,3.97
2019-02-15T22:17:40.870Z,3.90
2019-02-15T22:20:11.435Z,5.27
2019-02-15T22:22:39.656Z,5.20
2019-02-15T22:25:08.315Z,3.57
2019-02-15T22:27:36.573Z,4.57
2019-02-15T22:30:15.004Z,4.77
2019-02-15T22:32:43.235Z,3.83
2019-02-15T22:35:11.483Z,4.10
2019-02-15T22:37:39.707Z,4.97
2019-02-15T22:40:26.401Z,4.57
2019-02-15T22:42:54.919Z,5.10
2019-02-15T22:45:23.150Z,4.53
2019-02-15T22:47:51.376Z,5.43
2019-02-15T22:50:19.620Z,5.07
2019-02-15T22:52:48.057Z,3.67
2019-02-15T22:55:16.364Z,3.50
2019-02-15T22:57:44.612Z,5.80
2019-02-15T23:00:21.796Z,3.37
2019-02-15T23:02:50.044Z,4.07
2019-02-15T23:05:18.496Z,3.53
2019-02-15T23:07:46.747Z,5.53
2019-02-15T23:10:14.976Z,5.53
2019-02-15T23:12:43.444Z,3.90
2019-02-15T23:15:11.704Z,4.00
2019-02-15T23:17:40.160Z,4.00
2019-02-15T23:20:08.391Z,4.73
2019-02-15T23:22:36.631Z,4.23
2019-02-15T23:25:06.889Z,4.40
2019-02-15T23:27:35.130Z,3.73
2019-02-15T23:30:03.437Z,5.10
2019-02-15T23:32:31.699Z,4.00
2019-02-15T23:34:59.951Z,4.10
2019-02-15T23:37:28.184Z,5.33
2019-02-15T23:39:56.440Z,3.03
2019-02-15T23:42:24.675Z,4.30
2019-02-15T23:44:52.923Z,3.00
2019-02-15T23:47:21.172Z,3.90
2019-02-15T23:49:49.392Z,3.90
2019-02-15T23:52:17.877Z,4.50
2019-02-15T23:54:46.092Z,4.57
2019-02-15T23:57:14.332Z,2.93
2019-02-15T23:59:42.564Z,5.07
